CPX327 Details

Departure: Cincinnati/Northern Kentucky International Airport (KCVG)
Arrival: Miami International Airport (KMIA) at N/A
Route: KENLN4 HYK VXV J43 ATL J89 OTK JUULI SSCOT5
Notes:


Current Weather Information
KCVG 190652Z 11007KT 10SM CLR 08/03 A2997 RMK AO2 SLP146 T00830028
KMIA 190653Z 12013KT 10SM FEW018 SCT028 SCT070 BKN220 28/23 A2985 RMK AO2 SLP107 T02830233